createdAt,value
2023-09-08T00:02:13.217Z,100448.50
2023-09-08T00:04:40.829Z,100446.03
2023-09-08T00:07:07.290Z,100450.31
2023-09-08T00:09:36.790Z,100445.53
2023-09-08T00:12:03.565Z,100449.53
2023-09-08T00:14:30.046Z,100450.34
2023-09-08T00:16:56.522Z,100449.91
2023-09-08T00:19:24.407Z,100452.22
2023-09-08T00:21:51.112Z,100451.56
2023-09-08T00:24:18.852Z,100449.28
2023-09-08T00:26:45.746Z,100451.53
2023-09-08T00:29:12.246Z,100441.84
2023-09-08T00:31:38.850Z,100449.31
2023-09-08T00:34:05.418Z,100448.50
2023-09-08T00:36:31.906Z,100446.22
2023-09-08T00:38:58.511Z,100443.28
2023-09-08T00:41:25.049Z,100451.34
2023-09-08T00:43:51.717Z,100446.22
2023-09-08T00:46:19.107Z,100437.97
2023-09-08T00:48:45.766Z,100447.25
2023-09-08T00:51:12.388Z,100448.34
2023-09-08T00:53:39.174Z,100449.56
2023-09-08T00:56:05.960Z,100453.28
2023-09-08T00:58:33.255Z,100454.53
2023-09-08T01:01:00.012Z,100454.72
2023-09-08T01:03:27.067Z,100453.78
2023-09-08T01:05:54.024Z,100457.06
2023-09-08T01:08:20.953Z,100457.47
2023-09-08T01:10:47.559Z,100447.75
2023-09-08T01:13:14.027Z,100452.25
2023-09-08T01:15:40.658Z,100449.06
2023-09-08T01:18:07.473Z,100452.09
2023-09-08T01:21:03.853Z,100445.47
2023-09-08T01:23:54.247Z,100450.66
2023-09-08T01:26:26.277Z,100447.34
2023-09-08T01:28:54.318Z,100446.41
2023-09-08T01:31:21.389Z,100441.03
2023-09-08T01:33:48.638Z,100441.84
2023-09-08T01:36:15.499Z,100452.06
2023-09-08T01:38:42.047Z,100446.22
2023-09-08T01:41:08.668Z,100451.25
2023-09-08T01:43:35.520Z,100448.34
2023-09-08T01:46:01.984Z,100449.59
2023-09-08T01:48:28.562Z,100442.47
2023-09-08T01:50:55.248Z,100456.09
2023-09-08T02:00:52.538Z,100440.84
2023-09-08T02:03:19.076Z,100436.69
2023-09-08T02:05:46.345Z,100437.34
2023-09-08T02:08:13.657Z,100433.47
2023-09-08T02:10:41.500Z,100432.47
2023-09-08T02:13:08.058Z,100425.66
2023-09-08T02:15:36.458Z,100425.88
2023-09-08T02:18:03.203Z,100430.25
2023-09-08T02:20:29.685Z,100432.25
2023-09-08T02:22:56.293Z,100435.91
2023-09-08T02:25:25.238Z,100436.44
2023-09-08T02:27:51.663Z,100440.03
2023-09-08T02:30:18.292Z,100436.25
2023-09-08T02:32:45.041Z,100435.28
2023-09-08T02:35:11.546Z,100437.53
2023-09-08T02:37:38.126Z,100444.97
2023-09-08T02:40:07.083Z,100440.41
2023-09-08T02:42:33.648Z,100436.06
2023-09-08T02:45:00.143Z,100436.06
2023-09-08T02:47:26.566Z,100437.47
2023-09-08T02:49:52.969Z,100434.22
2023-09-08T02:52:20.851Z,100433.38
2023-09-08T02:54:47.426Z,100432.09
2023-09-08T02:57:13.892Z,100437.88
2023-09-08T02:59:40.338Z,100432.06
2023-09-08T03:02:06.843Z,100428.16
2023-09-08T03:04:33.428Z,100431.28
2023-09-08T03:06:59.859Z,100422.72
2023-09-08T03:09:26.278Z,100412.75
2023-09-08T03:11:52.709Z,100412.84
2023-09-08T03:14:19.341Z,100412.59
2023-09-08T03:16:45.818Z,100410.16
2023-09-08T03:19:12.282Z,100400.94
2023-09-08T03:21:38.700Z,100403.53
2023-09-08T03:24:05.514Z,100402.09
2023-09-08T03:26:31.935Z,100405.19
2023-09-08T03:28:58.409Z,100391.59
2023-09-08T03:31:24.933Z,100401.34
2023-09-08T03:33:51.663Z,100400.34
2023-09-08T03:36:18.347Z,100400.72
2023-09-08T03:38:45.024Z,100406.09
2023-09-08T03:41:12.129Z,100406.25
2023-09-08T03:43:38.660Z,100403.63
2023-09-08T03:46:05.161Z,100404.22
2023-09-08T03:48:31.637Z,100402.38
2023-09-08T03:50:58.094Z,100398.47
2023-09-08T03:53:24.742Z,100399.28
2023-09-08T03:55:51.644Z,100407.09
2023-09-08T03:58:18.153Z,100400.47
2023-09-08T04:00:44.589Z,100401.25
2023-09-08T04:03:11.056Z,100402.44
2023-09-08T04:05:37.640Z,100402.53
2023-09-08T04:08:04.329Z,100399.44
2023-09-08T04:10:30.740Z,100398.25
2023-09-08T04:12:57.148Z,100397.47
2023-09-08T04:15:23.788Z,100398.28
2023-09-08T04:17:50.277Z,100392.28
2023-09-08T04:20:16.888Z,100400.22
2023-09-08T04:22:43.559Z,100400.22
2023-09-08T04:25:11.317Z,100400.66
2023-09-08T04:27:37.982Z,100400.88
2023-09-08T04:30:06.285Z,100409.38
2023-09-08T04:32:32.944Z,100407.75
2023-09-08T04:34:59.444Z,100411.25
2023-09-08T04:37:25.850Z,100415.25
2023-09-08T04:39:52.287Z,100418.03
2023-09-08T04:42:18.711Z,100421.19
2023-09-08T04:44:47.256Z,100412.28
2023-09-08T04:47:14.731Z,100419.59
2023-09-08T04:49:41.422Z,100421.38
2023-09-08T04:52:07.953Z,100419.44
2023-09-08T04:54:34.514Z,100419.19
2023-09-08T04:57:15.930Z,100417.03
2023-09-08T04:59:48.443Z,100420.44
2023-09-08T05:02:14.940Z,100417.63
2023-09-08T05:04:41.354Z,100420.41
2023-09-08T05:07:07.788Z,100421.34
2023-09-08T05:09:34.958Z,100417.63
2023-09-08T05:12:01.393Z,100420.31
2023-09-08T05:14:27.858Z,100422.41
2023-09-08T05:16:56.904Z,100422.63
2023-09-08T05:19:24.163Z,100420.38
2023-09-08T05:21:55.870Z,100421.38
2023-09-08T05:24:22.781Z,100419.72
2023-09-08T05:26:49.395Z,100421.25
2023-09-08T05:29:15.806Z,100423.56
2023-09-08T05:31:42.460Z,100425.22
2023-09-08T05:34:08.882Z,100422.19
2023-09-08T05:36:37.920Z,100425.50
2023-09-08T05:39:04.809Z,100423.84
2023-09-08T05:41:31.229Z,100424.34
2023-09-08T05:43:57.632Z,100423.97
2023-09-08T05:46:24.271Z,100428.00
2023-09-08T05:48:50.773Z,100429.41
2023-09-08T05:51:17.217Z,100429.41
2023-09-08T05:53:43.775Z,100429.47
2023-09-08T05:56:11.287Z,100427.91
2023-09-08T05:58:37.892Z,100424.59
2023-09-08T06:01:04.827Z,100431.84
2023-09-08T06:03:31.672Z,100432.09
2023-09-08T06:05:58.348Z,100425.91
2023-09-08T06:08:25.605Z,100422.88
2023-09-08T06:10:52.181Z,100416.97
2023-09-08T06:13:18.642Z,100414.53
2023-09-08T06:15:45.233Z,100414.16
2023-09-08T06:18:12.673Z,100415.00
2023-09-08T06:20:45.808Z,100406.81
2023-09-08T06:23:12.291Z,100410.75
2023-09-08T06:25:38.772Z,100404.94
2023-09-08T06:28:05.413Z,100408.94
2023-09-08T06:30:31.865Z,100411.63
2023-09-08T06:32:58.468Z,100406.47
2023-09-08T06:35:27.509Z,100409.38
2023-09-08T06:37:53.957Z,100404.00
2023-09-08T06:40:20.377Z,100404.25
2023-09-08T06:42:46.881Z,100406.16
2023-09-08T06:45:14.581Z,100411.53
2023-09-08T06:47:41.272Z,100419.63
2023-09-08T06:50:08.170Z,100417.81
2023-09-08T06:52:34.611Z,100412.00
2023-09-08T06:55:01.119Z,100412.84
2023-09-08T06:57:28.228Z,100416.38
2023-09-08T06:59:54.718Z,100410.38
2023-09-08T07:02:21.165Z,100409.97
2023-09-08T07:04:48.498Z,100413.72
2023-09-08T07:07:15.021Z,100412.09
2023-09-08T07:09:41.524Z,100421.41
2023-09-08T07:12:07.964Z,100405.88
2023-09-08T07:14:34.431Z,100413.81
2023-09-08T07:17:01.160Z,100410.47
2023-09-08T07:19:28.538Z,100413.19
2023-09-08T07:21:55.093Z,100406.34
2023-09-08T07:24:21.853Z,100409.28
2023-09-08T07:26:48.683Z,100408.63
2023-09-08T07:29:15.111Z,100417.16
2023-09-08T07:31:41.638Z,100412.16
2023-09-08T07:34:08.315Z,100413.22
2023-09-08T07:36:37.360Z,100419.19
2023-09-08T07:39:03.803Z,100411.53
2023-09-08T07:41:30.243Z,100420.22
2023-09-08T07:43:56.798Z,100415.66
2023-09-08T07:46:23.508Z,100411.28
2023-09-08T07:48:50.946Z,100416.66
2023-09-08T07:51:17.394Z,100415.47
2023-09-08T07:53:43.854Z,100413.38
2023-09-08T07:56:11.668Z,100419.81
2023-09-08T07:58:39.883Z,100423.72
2023-09-08T08:01:06.378Z,100413.16
2023-09-08T08:03:32.890Z,100422.44
2023-09-08T08:05:59.827Z,100420.47
2023-09-08T08:08:26.392Z,100422.75
2023-09-08T08:10:52.866Z,100418.56
2023-09-08T08:13:19.354Z,100419.81
2023-09-08T08:15:49.416Z,100424.34
2023-09-08T08:18:16.318Z,100417.91
2023-09-08T08:20:42.897Z,100413.91
2023-09-08T08:23:09.358Z,100415.78
2023-09-08T08:25:35.849Z,100415.56
2023-09-08T08:28:02.588Z,100407.84
2023-09-08T08:30:29.509Z,100406.56
2023-09-08T08:32:56.249Z,100405.06
2023-09-08T08:35:22.772Z,100399.59
2023-09-08T08:37:49.283Z,100396.56
2023-09-08T08:40:15.708Z,100390.72
2023-09-08T08:42:43.332Z,100399.03
2023-09-08T08:45:10.258Z,100395.19
2023-09-08T08:47:37.178Z,100396.09
2023-09-08T08:50:05.484Z,100383.41
2023-09-08T08:52:32.120Z,100383.25
2023-09-08T08:54:59.038Z,100386.75
2023-09-08T08:57:28.599Z,100387.19
2023-09-08T08:59:55.185Z,100383.44
2023-09-08T09:02:23.009Z,100375.94
2023-09-08T09:04:50.091Z,100385.56
2023-09-08T09:07:19.519Z,100377.72
2023-09-08T09:09:46.409Z,100377.44
2023-09-08T09:12:13.070Z,100366.53
2023-09-08T09:14:39.558Z,100377.25
2023-09-08T09:17:06.592Z,100377.66
2023-09-08T09:19:34.207Z,100370.16
2023-09-08T09:22:00.787Z,100366.88
2023-09-08T09:24:38.090Z,100365.66
2023-09-08T09:27:06.812Z,100360.53
2023-09-08T09:29:35.750Z,100352.66
2023-09-08T09:32:09.130Z,100355.84
2023-09-08T09:34:36.023Z,100357.97
2023-09-08T09:37:02.636Z,100350.09
2023-09-08T09:39:29.382Z,100351.44
2023-09-08T09:41:57.592Z,100348.28
2023-09-08T09:44:25.261Z,100339.25
2023-09-08T09:46:55.370Z,100344.44
2023-09-08T09:49:22.039Z,100339.72
2023-09-08T09:51:50.465Z,100338.78
2023-09-08T09:54:17.568Z,100333.59
2023-09-08T09:56:46.789Z,100334.53
2023-09-08T09:59:14.852Z,100341.25
2023-09-08T10:01:43.475Z,100338.97
2023-09-08T10:04:10.563Z,100331.91
2023-09-08T10:06:39.162Z,100334.84
2023-09-08T10:09:14.203Z,100333.72
2023-09-08T10:11:45.776Z,100318.66
2023-09-08T10:14:14.109Z,100330.81
2023-09-08T10:16:44.042Z,100338.97
2023-09-08T10:19:11.869Z,100341.34
2023-09-08T10:21:42.831Z,100334.72
2023-09-08T10:24:15.990Z,100333.53
2023-09-08T10:26:45.767Z,100333.03
2023-09-08T10:29:13.346Z,100332.34
2023-09-08T10:31:40.669Z,100325.25
2023-09-08T10:34:07.938Z,100326.16
2023-09-08T10:36:36.935Z,100321.50
2023-09-08T10:39:43.082Z,100327.63
2023-09-08T10:42:21.944Z,100324.03
2023-09-08T10:44:48.352Z,100320.63
2023-09-08T10:47:15.824Z,100312.75
2023-09-08T10:49:42.245Z,100313.72
2023-09-08T10:52:10.350Z,100296.94
2023-09-08T10:54:49.160Z,100301.31
2023-09-08T10:57:20.970Z,100305.19
2023-09-08T11:00:02.173Z,100292.09
2023-09-08T11:02:52.056Z,100300.81
2023-09-08T11:05:20.935Z,100303.28
2023-09-08T11:07:50.752Z,100293.25
2023-09-08T11:10:17.242Z,100304.59
2023-09-08T11:12:43.850Z,100293.41
2023-09-08T11:15:10.717Z,100296.72
2023-09-08T11:17:40.647Z,100296.72
2023-09-08T11:20:10.158Z,100298.34
2023-09-08T11:22:38.469Z,100302.28
2023-09-08T11:25:07.959Z,100285.50
2023-09-08T11:27:34.929Z,100293.06
2023-09-08T11:30:01.830Z,100291.16
2023-09-08T11:32:35.291Z,100284.41
2023-09-08T11:35:10.445Z,100287.09
2023-09-08T11:37:43.284Z,100281.84
2023-09-08T11:40:13.215Z,100282.50
2023-09-08T11:42:45.726Z,100286.44
2023-09-08T11:45:19.241Z,100276.81
2023-09-08T11:47:46.116Z,100282.31
2023-09-08T11:50:16.476Z,100280.53
2023-09-08T11:52:45.340Z,100280.09
2023-09-08T11:55:13.004Z,100277.31
2023-09-08T11:57:41.315Z,100279.16
2023-09-08T12:00:10.830Z,100277.38
2023-09-08T12:02:38.450Z,100280.47
2023-09-08T12:05:05.466Z,100283.31
2023-09-08T12:07:32.298Z,100279.53
2023-09-08T12:10:00.187Z,100274.53
2023-09-08T12:12:27.952Z,100276.50
2023-09-08T12:14:54.505Z,100273.22
2023-09-08T12:17:25.669Z,100272.94
2023-09-08T12:19:53.008Z,100266.88
2023-09-08T12:22:23.613Z,100273.25
2023-09-08T12:25:00.011Z,100270.41
2023-09-08T12:27:27.284Z,100268.63
2023-09-08T12:29:59.087Z,100256.00
2023-09-08T12:32:26.879Z,100248.91
2023-09-08T12:34:53.718Z,100253.56
2023-09-08T12:37:24.748Z,100244.34
2023-09-08T12:39:51.832Z,100246.50
2023-09-08T12:42:19.396Z,100242.38
2023-09-08T12:44:45.863Z,100237.88
2023-09-08T12:47:15.586Z,100232.19
2023-09-08T12:49:42.138Z,100237.44
2023-09-08T12:52:08.679Z,100230.19
2023-09-08T12:54:35.153Z,100224.22
2023-09-08T12:57:03.007Z,100221.56
2023-09-08T12:59:30.721Z,100224.81
2023-09-08T13:01:57.492Z,100226.13
2023-09-08T13:04:24.017Z,100219.50
2023-09-08T13:06:50.686Z,100223.50
2023-09-08T13:09:17.238Z,100226.19
2023-09-08T13:11:44.028Z,100218.34
2023-09-08T13:14:10.492Z,100215.38
2023-09-08T13:16:37.022Z,100211.09
2023-09-08T13:19:04.979Z,100214.97
2023-09-08T13:21:31.720Z,100214.38
2023-09-08T13:23:58.370Z,100217.78
2023-09-08T13:26:24.890Z,100214.09
2023-09-08T13:28:51.369Z,100207.56
2023-09-08T13:31:18.043Z,100203.78
2023-09-08T13:33:44.670Z,100213.66
2023-09-08T13:36:11.085Z,100210.97
2023-09-08T13:38:38.140Z,100215.53
2023-09-08T13:41:05.164Z,100219.41
2023-09-08T13:43:31.563Z,100218.72
2023-09-08T13:45:58.100Z,100215.47
2023-09-08T13:48:25.890Z,100207.88
2023-09-08T13:50:54.356Z,100208.69
2023-09-08T13:53:21.548Z,100206.81
2023-09-08T13:55:51.521Z,100208.72
2023-09-08T13:58:20.732Z,100206.28
2023-09-08T14:03:21.840Z,100203.06
2023-09-08T14:05:53.888Z,100199.53
2023-09-08T14:08:39.266Z,100197.66
2023-09-08T14:11:15.156Z,100198.75
2023-09-08T14:13:44.115Z,100196.81
2023-09-08T14:16:11.842Z,100191.63
2023-09-08T14:18:38.257Z,100190.00
2023-09-08T14:21:05.123Z,100195.47
2023-09-08T14:23:32.192Z,100196.84
2023-09-08T14:25:58.729Z,100189.16
2023-09-08T14:28:25.297Z,100194.38
2023-09-08T14:30:52.170Z,100186.41
2023-09-08T14:33:18.850Z,100189.97
2023-09-08T14:35:46.976Z,100187.75
2023-09-08T14:38:14.282Z,100185.00
2023-09-08T14:40:40.699Z,100183.38
2023-09-08T14:43:07.128Z,100176.19
2023-09-08T14:45:33.582Z,100179.19
2023-09-08T14:48:01.895Z,100172.41
2023-09-08T14:50:28.619Z,100182.66
2023-09-08T14:52:55.442Z,100181.50
2023-09-08T14:55:21.843Z,100173.53
2023-09-08T14:57:48.304Z,100169.41
2023-09-08T15:00:15.533Z,100173.50
2023-09-08T15:02:42.089Z,100167.22
2023-09-08T15:05:09.712Z,100165.31
2023-09-08T15:07:36.160Z,100174.63
2023-09-08T15:10:02.826Z,100171.34
2023-09-08T15:12:29.424Z,100169.53
2023-09-08T15:14:57.033Z,100172.16
2023-09-08T15:17:23.455Z,100169.06
2023-09-08T15:19:49.937Z,100165.13
2023-09-08T15:22:16.374Z,100164.03
2023-09-08T15:24:42.792Z,100168.97
2023-09-08T15:27:09.336Z,100159.63
2023-09-08T15:29:35.821Z,100167.06
2023-09-08T15:32:02.329Z,100159.63
2023-09-08T15:34:29.349Z,100164.31
2023-09-08T15:36:56.100Z,100165.56
2023-09-08T15:39:22.597Z,100158.34
2023-09-08T15:41:49.045Z,100159.16
2023-09-08T15:44:15.786Z,100153.88
2023-09-08T15:46:42.430Z,100148.09
2023-09-08T15:49:08.985Z,100146.00
2023-09-08T15:51:35.489Z,100141.72
2023-09-08T15:54:01.967Z,100142.97
2023-09-08T15:56:28.410Z,100139.94
2023-09-08T15:58:54.867Z,100134.88
2023-09-08T16:01:21.352Z,100133.28
2023-09-08T16:03:47.970Z,100139.09
2023-09-08T16:06:14.590Z,100128.97
2023-09-08T16:08:41.284Z,100131.91
2023-09-08T16:11:07.701Z,100136.47
2023-09-08T16:13:34.448Z,100126.91
2023-09-08T16:16:01.356Z,100134.28
2023-09-08T16:18:27.875Z,100128.06
2023-09-08T16:20:54.314Z,100136.00
2023-09-08T16:23:21.433Z,100129.63
2023-09-08T16:25:47.956Z,100131.97
2023-09-08T16:28:14.406Z,100129.50
2023-09-08T16:30:40.930Z,100128.75
2023-09-08T16:33:07.482Z,100130.69
2023-09-08T16:35:34.927Z,100123.06
2023-09-08T16:38:01.343Z,100127.31
2023-09-08T16:40:27.812Z,100126.81
2023-09-08T16:42:54.517Z,100135.25
2023-09-08T16:45:20.967Z,100129.59
2023-09-08T16:47:47.418Z,100133.06
2023-09-08T16:50:13.937Z,100132.41
2023-09-08T16:52:40.424Z,100127.53
2023-09-08T16:55:12.167Z,100133.63
2023-09-08T16:57:42.167Z,100131.38
2023-09-08T17:00:09.559Z,100135.00
2023-09-08T17:02:36.997Z,100136.44
2023-09-08T17:05:04.087Z,100138.25
2023-09-08T17:07:30.509Z,100134.94
2023-09-08T17:09:57.070Z,100133.50
2023-09-08T17:12:23.601Z,100131.97
2023-09-08T17:14:50.042Z,100140.56
2023-09-08T17:17:16.751Z,100138.81
2023-09-08T17:19:43.165Z,100137.78
2023-09-08T17:22:11.125Z,100141.91
2023-09-08T17:24:37.557Z,100137.56
2023-09-08T17:27:04.361Z,100146.78
2023-09-08T17:29:32.200Z,100154.88
2023-09-08T17:31:59.712Z,100151.75
2023-09-08T17:34:26.600Z,100150.28
2023-09-08T17:36:56.866Z,100145.81
2023-09-08T17:39:24.557Z,100155.94
2023-09-08T17:41:51.426Z,100152.59
2023-09-08T17:44:18.677Z,100144.59
2023-09-08T17:46:45.640Z,100154.28
2023-09-08T17:49:12.157Z,100148.41
2023-09-08T17:51:38.567Z,100151.63
2023-09-08T17:54:05.124Z,100146.06
2023-09-08T17:56:31.571Z,100151.41
2023-09-08T17:58:57.969Z,100144.19
2023-09-08T18:01:24.494Z,100153.38
2023-09-08T18:03:51.118Z,100151.38
2023-09-08T18:06:17.636Z,100148.91
2023-09-08T18:08:44.779Z,100143.31
2023-09-08T18:11:11.348Z,100155.72
2023-09-08T18:13:39.580Z,100153.28
2023-09-08T18:16:06.759Z,100152.72
2023-09-08T18:18:33.911Z,100154.25
2023-09-08T18:21:00.407Z,100156.22
2023-09-08T18:23:26.808Z,100151.28
2023-09-08T18:25:55.511Z,100152.88
2023-09-08T18:28:22.279Z,100161.06
2023-09-08T18:30:48.743Z,100149.91
2023-09-08T18:33:15.244Z,100151.44
2023-09-08T18:35:42.671Z,100156.22
2023-09-08T18:38:10.035Z,100148.59
2023-09-08T18:40:36.739Z,100157.47
2023-09-08T18:43:03.783Z,100149.34
2023-09-08T18:45:30.243Z,100153.53
2023-09-08T18:47:56.688Z,100143.31
2023-09-08T18:50:23.189Z,100147.34
2023-09-08T18:52:49.692Z,100152.59
2023-09-08T18:55:16.364Z,100155.44
2023-09-08T18:57:42.774Z,100161.50
2023-09-08T19:00:09.684Z,100169.31
2023-09-08T19:02:39.543Z,100165.19
2023-09-08T19:05:07.450Z,100164.59
2023-09-08T19:07:34.156Z,100163.94
2023-09-08T19:10:02.053Z,100167.16
2023-09-08T19:12:28.569Z,100172.03
2023-09-08T19:14:56.131Z,100171.06
2023-09-08T19:17:22.662Z,100170.88
2023-09-08T19:19:49.134Z,100171.72
2023-09-08T19:22:15.735Z,100173.75
2023-09-08T19:24:53.401Z,100176.94
2023-09-08T19:27:19.956Z,100178.75
2023-09-08T19:29:50.280Z,100178.28
2023-09-08T19:32:17.307Z,100171.69
2023-09-08T19:34:43.735Z,100168.31
2023-09-08T19:37:10.229Z,100164.69
2023-09-08T19:39:36.717Z,100163.63
2023-09-08T19:42:03.385Z,100165.66
2023-09-08T19:44:29.781Z,100163.28
2023-09-08T19:46:56.194Z,100171.28
2023-09-08T19:49:22.661Z,100163.78
2023-09-08T19:51:49.073Z,100162.59
2023-09-08T19:54:15.486Z,100170.13
2023-09-08T19:56:41.908Z,100181.28
2023-09-08T19:59:08.461Z,100163.66
2023-09-08T20:01:35.713Z,100162.78
2023-09-08T20:04:02.444Z,100169.56
2023-09-08T20:06:28.956Z,100169.13
2023-09-08T20:08:55.382Z,100174.34
2023-09-08T20:11:21.817Z,100165.22
2023-09-08T20:13:48.301Z,100165.41
2023-09-08T20:16:14.822Z,100166.28
2023-09-08T20:18:41.380Z,100172.16
2023-09-08T20:21:07.912Z,100170.13
2023-09-08T20:23:35.521Z,100165.50
2023-09-08T20:26:03.019Z,100173.06
2023-09-08T20:28:29.529Z,100169.28
2023-09-08T20:33:25.308Z,100173.66
2023-09-08T20:35:51.941Z,100174.03
2023-09-08T20:38:18.426Z,100169.91
2023-09-08T20:40:52.296Z,100165.84
2023-09-08T20:43:26.020Z,100167.59
2023-09-08T20:45:56.924Z,100168.72
2023-09-08T20:48:23.781Z,100163.31
2023-09-08T20:50:59.197Z,100164.13
2023-09-08T20:53:25.627Z,100172.69
2023-09-08T20:55:52.057Z,100173.78
2023-09-08T20:58:18.490Z,100170.63
2023-09-08T21:00:45.020Z,100177.41
2023-09-08T21:03:11.704Z,100171.19
2023-09-08T21:05:38.183Z,100164.69
2023-09-08T21:08:04.902Z,100166.47
2023-09-08T21:10:33.105Z,100164.75
2023-09-08T21:12:59.574Z,100159.28
2023-09-08T21:15:26.167Z,100165.50
2023-09-08T21:17:52.848Z,100159.59
2023-09-08T21:20:19.378Z,100165.34
2023-09-08T21:22:45.837Z,100162.00
2023-09-08T21:25:12.251Z,100153.72
2023-09-08T21:27:38.737Z,100160.72
2023-09-08T21:30:05.861Z,100160.19
2023-09-08T21:32:32.381Z,100159.50
2023-09-08T21:34:58.823Z,100161.53
2023-09-08T21:37:25.259Z,100164.69
2023-09-08T21:39:51.759Z,100163.91
2023-09-08T21:42:18.187Z,100164.69
2023-09-08T21:44:44.616Z,100156.72
2023-09-08T21:47:11.060Z,100160.78
2023-09-08T21:49:37.556Z,100160.63
2023-09-08T21:52:04.310Z,100159.81
2023-09-08T21:54:30.719Z,100165.03
2023-09-08T21:56:57.495Z,100162.03
2023-09-08T21:59:23.940Z,100166.53
2023-09-08T22:01:50.538Z,100163.31
2023-09-08T22:04:17.048Z,100151.81
2023-09-08T22:06:43.853Z,100166.94
2023-09-08T22:09:10.296Z,100161.94
2023-09-08T22:11:36.793Z,100163.31
2023-09-08T22:14:03.655Z,100163.66
2023-09-08T22:16:30.186Z,100161.16
2023-09-08T22:18:57.039Z,100166.38
2023-09-08T22:21:23.574Z,100163.81
2023-09-08T22:23:51.686Z,100153.44
2023-09-08T22:26:19.543Z,100160.84
2023-09-08T22:28:49.538Z,100160.41
2023-09-08T22:31:16.276Z,100159.94
2023-09-08T22:33:43.661Z,100152.75
2023-09-08T22:36:10.550Z,100159.09
2023-09-08T22:38:37.098Z,100161.88
2023-09-08T22:41:03.806Z,100145.56
2023-09-08T22:43:30.277Z,100145.44
2023-09-08T22:45:56.774Z,100150.94
2023-09-08T22:48:23.488Z,100143.13
2023-09-08T22:50:51.473Z,100150.03
2023-09-08T22:53:18.671Z,100150.66
2023-09-08T22:55:45.525Z,100145.56
2023-09-08T22:58:14.796Z,100148.94
2023-09-08T23:00:41.734Z,100151.44
2023-09-08T23:03:09.700Z,100150.88
2023-09-08T23:05:36.401Z,100150.63
2023-09-08T23:08:03.125Z,100153.16
2023-09-08T23:10:29.708Z,100157.69
2023-09-08T23:12:56.667Z,100153.78
2023-09-08T23:15:25.783Z,100156.91
2023-09-08T23:17:52.365Z,100152.94
2023-09-08T23:20:18.802Z,100151.72
2023-09-08T23:22:45.500Z,100143.47
2023-09-08T23:25:12.121Z,100146.31
2023-09-08T23:27:38.813Z,100146.97
2023-09-08T23:30:06.757Z,100148.84
2023-09-08T23:32:33.317Z,100143.84
2023-09-08T23:35:00.035Z,100143.47
2023-09-08T23:37:26.761Z,100144.31
2023-09-08T23:39:53.249Z,100142.22
2023-09-08T23:42:20.365Z,100142.25
2023-09-08T23:44:46.900Z,100140.38
2023-09-08T23:47:13.813Z,100143.91
2023-09-08T23:49:40.424Z,100140.19
2023-09-08T23:52:07.023Z,100138.13
2023-09-08T23:54:33.479Z,100137.50
2023-09-08T23:57:00.719Z,100141.44
2023-09-08T23:59:27.344Z,100138.94
